createdAt,value
2022-08-07T00:00:52.680Z,98682.80
2022-08-07T00:03:22.238Z,98684.02
2022-08-07T00:05:54.219Z,98679.54
2022-08-07T00:08:22.487Z,98682.42
2022-08-07T00:10:57.642Z,98681.91
2022-08-07T00:13:26.938Z,98688.02
2022-08-07T00:15:55.557Z,98686.70
2022-08-07T00:18:25.400Z,98687.73
2022-08-07T00:20:56.776Z,98685.80
2022-08-07T00:23:28.308Z,98682.13
2022-08-07T00:26:01.492Z,98685.99
2022-08-07T00:28:34.369Z,98687.70
2022-08-07T00:31:06.424Z,98689.48
2022-08-07T00:33:41.816Z,98688.99
2022-08-07T00:36:10.526Z,98690.83
2022-08-07T00:38:40.133Z,98690.86
2022-08-07T00:41:09.940Z,98688.61
2022-08-07T00:44:00.315Z,98690.03
2022-08-07T00:46:33.177Z,98689.20
2022-08-07T00:49:02.599Z,98693.59
2022-08-07T00:51:57.097Z,98696.00
2022-08-07T00:54:20.055Z,98691.34
2022-08-07T00:56:49.585Z,98693.83
2022-08-07T00:59:20.331Z,98697.04
2022-08-07T01:02:08.920Z,98697.10
2022-08-07T01:04:43.267Z,98695.59
2022-08-07T01:07:13.864Z,98697.15
2022-08-07T01:10:06.066Z,98697.74
2022-08-07T01:12:31.903Z,98700.68
2022-08-07T01:15:04.401Z,98700.73
2022-08-07T01:17:34.091Z,98697.89
2022-08-07T01:20:09.974Z,98694.78
2022-08-07T01:22:46.886Z,98694.41
2022-08-07T01:25:53.997Z,98693.77
2022-08-07T01:28:18.484Z,98697.45
2022-08-07T01:30:51.333Z,98696.13
2022-08-07T01:33:21.215Z,98692.29
2022-08-07T01:35:53.710Z,98690.27
2022-08-07T01:38:25.988Z,98698.26
2022-08-07T01:41:02.640Z,98698.44
2022-08-07T01:43:38.175Z,98696.11
2022-08-07T01:46:12.331Z,98695.77
2022-08-07T01:48:46.733Z,98692.83
2022-08-07T01:52:01.342Z,98692.17
2022-08-07T01:54:33.326Z,98685.83
2022-08-07T01:57:30.910Z,98681.30
2022-08-07T02:00:04.341Z,98681.24
2022-08-07T02:03:18.102Z,98682.53
2022-08-07T02:05:47.865Z,98680.13
2022-08-07T02:08:29.232Z,98677.16
2022-08-07T02:11:00.134Z,98678.91
2022-08-07T02:14:00.708Z,98681.55
2022-08-07T02:16:28.537Z,98682.37
2022-08-07T02:19:05.749Z,98682.02
2022-08-07T02:21:56.604Z,98683.96
2022-08-07T02:24:29.279Z,98682.88
2022-08-07T02:27:01.349Z,98680.56
2022-08-07T02:29:32.738Z,98681.30
2022-08-07T02:32:05.060Z,98683.30
2022-08-07T02:34:34.528Z,98691.08
2022-08-07T02:37:08.380Z,98692.41
2022-08-07T02:40:29.493Z,98689.92
2022-08-07T02:42:34.536Z,98689.71
2022-08-07T02:45:59.446Z,98686.58
2022-08-07T02:47:59.487Z,98685.30
2022-08-07T02:50:33.259Z,98685.21
2022-08-07T02:53:07.037Z,98685.45
2022-08-07T02:56:03.536Z,98689.04
2022-08-07T02:58:36.356Z,98691.08
2022-08-07T03:01:16.088Z,98692.64
2022-08-07T03:03:50.869Z,98692.31
2022-08-07T03:06:34.538Z,98691.10
2022-08-07T03:09:04.789Z,98694.27
2022-08-07T03:11:38.947Z,98695.21
2022-08-07T03:14:22.451Z,98691.41
2022-08-07T03:16:52.367Z,98693.93
2022-08-07T03:19:22.015Z,98693.50
2022-08-07T03:21:52.188Z,98695.79
2022-08-07T03:24:26.890Z,98697.11
2022-08-07T03:27:01.646Z,98699.79
2022-08-07T03:29:46.125Z,98699.80
2022-08-07T03:32:22.761Z,98698.23
2022-08-07T03:35:01.103Z,98690.46
2022-08-07T03:37:53.864Z,98690.46
2022-08-07T03:40:30.870Z,98694.05
2022-08-07T03:43:00.965Z,98696.45
2022-08-07T03:45:31.570Z,98696.45
2022-08-07T03:48:10.050Z,98698.30
2022-08-07T03:50:52.040Z,98693.77
2022-08-07T03:54:00.761Z,98698.30
2022-08-07T03:56:32.637Z,98702.16
2022-08-07T03:59:08.326Z,98704.66
2022-08-07T04:01:43.262Z,98705.77
2022-08-07T04:04:17.369Z,98703.65
2022-08-07T04:06:50.927Z,98710.13
2022-08-07T04:09:23.462Z,98713.57
2022-08-07T04:12:20.676Z,98712.64
2022-08-07T04:14:43.912Z,98713.72
2022-08-07T04:17:21.255Z,98705.99
2022-08-07T04:19:55.305Z,98708.07
2022-08-07T04:22:30.086Z,98705.89
2022-08-07T04:25:08.851Z,98706.46
2022-08-07T04:27:44.419Z,98704.22
2022-08-07T04:30:21.535Z,98704.68
2022-08-07T04:33:13.910Z,98705.45
2022-08-07T04:35:50.420Z,98700.34
2022-08-07T04:38:21.436Z,98706.63
2022-08-07T04:40:51.887Z,98709.89
2022-08-07T04:43:28.415Z,98707.58
2022-08-07T04:46:29.560Z,98706.66
2022-08-07T04:49:14.914Z,98713.48
2022-08-07T04:51:59.993Z,98715.23
2022-08-07T04:54:34.320Z,98709.87
2022-08-07T04:58:09.596Z,98712.19
2022-08-07T05:00:14.256Z,98712.23
2022-08-07T05:02:54.425Z,98718.67
2022-08-07T05:05:53.314Z,98723.91
2022-08-07T05:09:00.195Z,98723.09
2022-08-07T05:11:24.557Z,98723.92
2022-08-07T05:14:54.218Z,98718.91
2022-08-07T05:16:52.880Z,98723.39
2022-08-07T05:19:43.985Z,98725.21
2022-08-07T05:22:26.753Z,98724.88
2022-08-07T05:24:59.593Z,98726.77
2022-08-07T05:28:03.087Z,98726.54
2022-08-07T05:30:30.280Z,98724.13
2022-08-07T05:33:03.644Z,98727.77
2022-08-07T05:35:41.683Z,98727.05
2022-08-07T05:38:11.895Z,98734.06
2022-08-07T05:40:50.306Z,98737.84
2022-08-07T05:43:49.761Z,98741.56
2022-08-07T05:46:09.990Z,98738.21
2022-08-07T05:48:59.088Z,98735.36
2022-08-07T05:51:31.513Z,98734.77
2022-08-07T05:54:12.565Z,98735.76
2022-08-07T05:56:51.692Z,98738.64
2022-08-07T05:59:20.992Z,98736.02
2022-08-07T06:01:52.027Z,98742.48
2022-08-07T06:04:22.055Z,98743.14
2022-08-07T06:07:03.909Z,98747.88
2022-08-07T06:10:04.586Z,98749.42
2022-08-07T06:12:27.799Z,98752.86
2022-08-07T06:15:05.227Z,98753.28
2022-08-07T06:17:38.031Z,98752.81
2022-08-07T06:20:12.544Z,98746.17
2022-08-07T06:23:02.161Z,98747.06
2022-08-07T06:25:54.390Z,98752.41
2022-08-07T06:28:27.475Z,98743.44
2022-08-07T06:30:58.248Z,98747.08
2022-08-07T06:33:29.696Z,98748.09
2022-08-07T06:36:06.620Z,98754.98
2022-08-07T06:38:58.469Z,98753.52
2022-08-07T06:42:02.567Z,98756.10
2022-08-07T06:44:40.068Z,98759.44
2022-08-07T06:47:10.433Z,98756.63
2022-08-07T06:49:50.795Z,98756.58
2022-08-07T06:52:31.896Z,98762.70
2022-08-07T06:55:31.421Z,98772.50
2022-08-07T06:58:01.072Z,98775.60
2022-08-07T07:00:34.468Z,98778.48
2022-08-07T07:03:08.755Z,98780.27
2022-08-07T07:06:05.394Z,98780.04
2022-08-07T07:08:29.964Z,98778.80
2022-08-07T07:11:13.975Z,98784.09
2022-08-07T07:13:57.384Z,98786.06
2022-08-07T07:16:45.427Z,98785.25
2022-08-07T07:19:55.405Z,98785.89
2022-08-07T07:22:33.926Z,98786.27
2022-08-07T07:25:13.806Z,98783.14
2022-08-07T07:27:58.549Z,98782.49
2022-08-07T07:30:38.436Z,98781.63
2022-08-07T07:33:12.351Z,98782.14
2022-08-07T07:36:04.540Z,98781.84
2022-08-07T07:38:33.194Z,98777.38
2022-08-07T07:41:08.766Z,98778.50
2022-08-07T07:44:14.130Z,98771.19
2022-08-07T07:46:37.173Z,98776.03
2022-08-07T07:50:32.807Z,98774.59
2022-08-07T07:52:16.022Z,98776.36
2022-08-07T07:54:50.885Z,98775.38
2022-08-07T07:57:43.612Z,98780.52
2022-08-07T08:00:20.707Z,98780.08
2022-08-07T08:03:04.768Z,98783.30
2022-08-07T08:05:42.802Z,98783.14
2022-08-07T08:08:34.508Z,98774.39
2022-08-07T08:11:09.218Z,98772.19
2022-08-07T08:13:54.007Z,98773.53
2022-08-07T08:16:30.059Z,98771.62
2022-08-07T08:20:17.220Z,98777.16
2022-08-07T08:22:32.616Z,98774.86
2022-08-07T08:25:26.792Z,98774.38
2022-08-07T08:28:17.022Z,98775.21
2022-08-07T08:30:57.354Z,98777.02
2022-08-07T08:33:29.078Z,98775.63
2022-08-07T08:36:03.106Z,98768.27
2022-08-07T08:38:38.605Z,98768.70
2022-08-07T08:41:18.266Z,98771.63
2022-08-07T08:43:59.390Z,98775.00
2022-08-07T08:46:48.745Z,98772.47
2022-08-07T08:49:33.636Z,98776.55
2022-08-07T08:52:19.391Z,98776.55
2022-08-07T08:54:55.116Z,98777.86
2022-08-07T08:57:34.672Z,98778.20
2022-08-07T09:00:07.987Z,98780.20
2022-08-07T09:02:49.567Z,98778.87
2022-08-07T09:05:38.139Z,98770.73
2022-08-07T09:08:17.867Z,98769.02
2022-08-07T09:11:03.623Z,98765.02
2022-08-07T09:13:38.087Z,98767.42
2022-08-07T09:16:22.441Z,98764.13
2022-08-07T09:19:51.065Z,98761.33
2022-08-07T09:24:31.093Z,98768.81
2022-08-07T09:25:24.912Z,98764.79
2022-08-07T09:28:02.867Z,98762.45
2022-08-07T09:30:47.627Z,98758.54
2022-08-07T09:33:52.588Z,98760.35
2022-08-07T09:36:33.581Z,98760.14
2022-08-07T09:39:27.522Z,98757.02
2022-08-07T09:42:17.076Z,98760.31
2022-08-07T09:47:24.493Z,98756.98
2022-08-07T09:48:04.951Z,98747.88
2022-08-07T09:50:51.425Z,98750.71
2022-08-07T09:53:22.650Z,98740.46
2022-08-07T09:56:08.860Z,98735.21
2022-08-07T09:59:00.759Z,98731.79
2022-08-07T10:02:00.889Z,98722.58
2022-08-07T10:04:47.573Z,98718.79
2022-08-07T10:07:52.970Z,98715.52
2022-08-07T10:11:00.275Z,98716.11
2022-08-07T10:14:00.145Z,98719.20
2022-08-07T10:16:38.569Z,98716.31
2022-08-07T10:19:37.797Z,98712.41
2022-08-07T10:22:33.297Z,98710.46
2022-08-07T10:25:22.669Z,98705.23
2022-08-07T10:28:29.266Z,98704.64
2022-08-07T10:31:10.970Z,98703.88
2022-08-07T10:34:05.806Z,98701.30
2022-08-07T10:37:12.514Z,98699.10
2022-08-07T10:40:06.003Z,98697.36
2022-08-07T10:42:41.325Z,98697.27
2022-08-07T10:45:44.056Z,98694.72
2022-08-07T10:48:35.785Z,98689.23
2022-08-07T10:51:16.949Z,98686.71
2022-08-07T10:54:10.685Z,98684.27
2022-08-07T10:57:06.291Z,98674.69
2022-08-07T10:59:47.726Z,98676.29
2022-08-07T11:02:33.545Z,98673.96
2022-08-07T11:05:49.136Z,98672.55
2022-08-07T11:08:30.312Z,98667.06
2022-08-07T11:11:05.579Z,98663.19
2022-08-07T11:14:42.766Z,98666.29
2022-08-07T11:16:31.059Z,98664.84
2022-08-07T11:19:07.098Z,98661.45
2022-08-07T11:21:49.888Z,98660.35
2022-08-07T11:24:23.190Z,98658.43
2022-08-07T11:26:57.054Z,98658.17
2022-08-07T11:29:41.926Z,98653.33
2022-08-07T11:32:25.402Z,98657.99
2022-08-07T11:34:58.386Z,98655.91
2022-08-07T11:37:58.298Z,98653.88
2022-08-07T11:40:49.896Z,98646.11
2022-08-07T11:43:29.756Z,98642.44
2022-08-07T11:46:21.798Z,98635.13
2022-08-07T11:49:50.855Z,98634.23
2022-08-07T11:52:12.957Z,98633.98
2022-08-07T11:55:18.626Z,98637.45
2022-08-07T11:58:13.255Z,98632.58
2022-08-07T12:01:02.595Z,98632.34
2022-08-07T12:03:57.372Z,98629.17
2022-08-07T12:07:00.322Z,98622.52
2022-08-07T12:09:37.182Z,98624.77
2022-08-07T12:12:11.625Z,98618.02
2022-08-07T12:14:55.692Z,98612.39
2022-08-07T12:17:59.386Z,98612.56
2022-08-07T12:20:34.771Z,98616.96
2022-08-07T12:24:05.478Z,98619.63
2022-08-07T12:26:29.299Z,98615.14
2022-08-07T12:29:07.030Z,98614.69
2022-08-07T12:32:02.309Z,98613.59
2022-08-07T12:34:31.409Z,98612.06
2022-08-07T12:37:08.814Z,98604.80
2022-08-07T12:39:51.368Z,98599.66
2022-08-07T12:42:27.110Z,98600.55
2022-08-07T12:44:58.333Z,98597.23
2022-08-07T12:47:38.254Z,98595.08
2022-08-07T12:50:39.396Z,98595.01
2022-08-07T12:53:17.461Z,98594.95
2022-08-07T12:56:03.303Z,98593.52
2022-08-07T12:58:39.704Z,98589.67
2022-08-07T13:01:22.745Z,98589.98
2022-08-07T13:04:32.600Z,98594.84
2022-08-07T13:08:12.479Z,98589.19
2022-08-07T13:10:44.806Z,98595.51
2022-08-07T13:13:48.247Z,98589.88
2022-08-07T13:16:29.033Z,98583.10
2022-08-07T13:19:18.237Z,98581.74
2022-08-07T13:22:04.128Z,98577.83
2022-08-07T13:24:53.902Z,98576.77
2022-08-07T13:28:05.707Z,98573.68
2022-08-07T13:30:19.714Z,98574.80
2022-08-07T13:33:16.383Z,98566.73
2022-08-07T13:36:05.404Z,98567.89
2022-08-07T13:38:42.100Z,98566.98
2022-08-07T13:41:21.039Z,98567.05
2022-08-07T13:43:55.944Z,98565.33
2022-08-07T13:46:33.402Z,98565.70
2022-08-07T13:49:04.950Z,98560.32
2022-08-07T13:52:05.188Z,98560.13
2022-08-07T13:54:33.575Z,98561.53
2022-08-07T13:57:08.665Z,98559.36
2022-08-07T13:59:44.599Z,98551.96
2022-08-07T14:02:19.086Z,98549.16
2022-08-07T14:05:04.575Z,98551.61
2022-08-07T14:07:59.304Z,98549.67
2022-08-07T14:10:42.242Z,98546.93
2022-08-07T14:13:16.207Z,98544.20
2022-08-07T14:15:53.071Z,98545.23
2022-08-07T14:18:31.970Z,98547.27
2022-08-07T14:21:11.639Z,98542.70
2022-08-07T14:24:00.591Z,98538.17
2022-08-07T14:26:35.808Z,98533.22
2022-08-07T14:30:05.442Z,98531.83
2022-08-07T14:32:01.076Z,98528.16
2022-08-07T14:34:31.426Z,98530.11
2022-08-07T14:37:03.291Z,98529.18
2022-08-07T14:40:17.392Z,98523.11
2022-08-07T14:42:31.473Z,98525.08
2022-08-07T14:45:06.431Z,98523.56
2022-08-07T14:47:53.066Z,98530.41
2022-08-07T14:50:29.145Z,98528.58
2022-08-07T14:53:09.647Z,98522.48
2022-08-07T14:58:33.512Z,98519.53
2022-08-07T15:01:22.042Z,98510.32
2022-08-07T15:06:47.970Z,98506.81
2022-08-07T15:09:58.384Z,98503.66
2022-08-07T15:12:10.657Z,98501.35
2022-08-07T15:14:58.495Z,98502.70
2022-08-07T15:17:33.112Z,98503.03
2022-08-07T15:20:32.495Z,98500.58
2022-08-07T15:23:22.187Z,98498.41
2022-08-07T15:34:50.806Z,98488.73
2022-08-07T15:38:04.713Z,98489.11
2022-08-07T15:40:34.091Z,98490.66
2022-08-07T15:43:53.343Z,98490.88
2022-08-07T15:46:31.659Z,98488.95
2022-08-07T15:49:12.572Z,98488.65
2022-08-07T15:54:34.549Z,98488.08
2022-08-07T15:57:40.070Z,98489.45
2022-08-07T16:00:34.057Z,98491.86
2022-08-07T16:03:21.774Z,98487.77
2022-08-07T16:05:58.832Z,98485.92
2022-08-07T16:08:37.789Z,98483.08
2022-08-07T16:11:17.458Z,98484.77
2022-08-07T16:14:04.904Z,98482.17
2022-08-07T16:16:49.819Z,98480.51
2022-08-07T16:19:42.541Z,98482.32
2022-08-07T16:22:55.149Z,98481.02
2022-08-07T16:25:54.251Z,98474.42
2022-08-07T16:30:06.514Z,98476.45
2022-08-07T16:31:51.394Z,98475.61
2022-08-07T16:34:36.658Z,98473.60
2022-08-07T16:38:06.253Z,98475.23
2022-08-07T16:40:57.232Z,98472.84
2022-08-07T16:44:03.909Z,98475.06
2022-08-07T16:47:27.330Z,98478.58
2022-08-07T16:50:35.628Z,98478.71
2022-08-07T16:54:02.073Z,98477.27
2022-08-07T16:56:25.817Z,98480.98
2022-08-07T16:59:10.937Z,98478.79
2022-08-07T17:01:56.643Z,98475.89
2022-08-07T17:04:36.829Z,98476.77
2022-08-07T17:07:28.414Z,98479.37
2022-08-07T17:10:30.207Z,98474.92
2022-08-07T17:13:41.408Z,98476.42
2022-08-07T17:16:21.827Z,98483.00
2022-08-07T17:19:03.455Z,98483.47
2022-08-07T17:21:50.679Z,98483.05
2022-08-07T17:24:55.373Z,98484.02
2022-08-07T17:27:50.690Z,98479.98
2022-08-07T17:30:26.490Z,98483.64
2022-08-07T17:34:09.066Z,98488.77
2022-08-07T17:36:13.473Z,98490.33
2022-08-07T17:39:00.328Z,98490.73
2022-08-07T17:42:04.954Z,98489.77
2022-08-07T17:44:45.480Z,98491.63
2022-08-07T17:47:38.434Z,98488.34
2022-08-07T17:50:19.265Z,98487.93
2022-08-07T17:52:59.580Z,98497.15
2022-08-07T17:55:59.968Z,98501.48
2022-08-07T17:58:46.292Z,98498.85
2022-08-07T18:01:34.737Z,98498.77
2022-08-07T18:04:16.786Z,98502.41
2022-08-07T18:06:57.953Z,98506.40
2022-08-07T18:10:05.293Z,98508.30
2022-08-07T18:13:06.499Z,98513.25
2022-08-07T18:15:58.382Z,98515.36
2022-08-07T18:18:45.045Z,98521.39
2022-08-07T18:21:53.620Z,98519.26
2022-08-07T18:24:33.585Z,98518.87
2022-08-07T18:27:38.739Z,98521.96
2022-08-07T18:30:31.186Z,98525.54
2022-08-07T18:33:36.168Z,98530.52
2022-08-07T18:36:16.577Z,98533.66
2022-08-07T18:40:05.128Z,98535.16
2022-08-07T18:42:12.862Z,98528.98
2022-08-07T18:45:44.468Z,98531.55
2022-08-07T18:48:01.357Z,98533.51
2022-08-07T18:50:48.024Z,98533.02
2022-08-07T18:53:36.907Z,98532.48
2022-08-07T18:56:19.444Z,98532.16
2022-08-07T19:02:33.986Z,98536.17
2022-08-07T19:05:15.879Z,98537.41
2022-08-07T19:07:57.711Z,98537.18
2022-08-07T19:10:51.380Z,98536.91
2022-08-07T19:13:26.525Z,98534.73
2022-08-07T19:17:04.638Z,98531.79
2022-08-07T19:19:00.048Z,98533.72
2022-08-07T19:21:47.484Z,98531.20
2022-08-07T19:24:36.123Z,98528.50
2022-08-07T19:30:55.673Z,98532.09
2022-08-07T19:31:00.065Z,98538.66
2022-08-07T19:32:59.762Z,98541.70
2022-08-07T19:35:33.083Z,98543.20
2022-08-07T19:38:16.640Z,98545.38
2022-08-07T19:40:50.714Z,98548.23
2022-08-07T19:43:48.592Z,98551.95
2022-08-07T19:46:19.082Z,98551.51
2022-08-07T19:48:53.813Z,98551.23
2022-08-07T19:51:51.830Z,98553.74
2022-08-07T19:54:31.937Z,98555.90
2022-08-07T19:58:00.429Z,98553.55
2022-08-07T20:00:02.016Z,98549.25
2022-08-07T20:02:39.016Z,98554.19
2022-08-07T20:05:28.659Z,98553.54
2022-08-07T20:08:01.787Z,98552.95
2022-08-07T20:10:55.091Z,98557.41
2022-08-07T20:13:32.156Z,98555.73
2022-08-07T20:16:02.788Z,98558.15
2022-08-07T20:18:34.318Z,98562.18
2022-08-07T20:21:03.577Z,98563.96
2022-08-07T20:23:54.311Z,98565.20
2022-08-07T20:26:32.707Z,98567.39
2022-08-07T20:29:46.743Z,98565.31
2022-08-07T20:32:11.451Z,98567.61
2022-08-07T20:34:54.328Z,98566.67
2022-08-07T20:37:29.308Z,98565.15
2022-08-07T20:40:03.379Z,98568.46
2022-08-07T20:42:37.046Z,98567.65
2022-08-07T20:45:32.789Z,98566.25
2022-08-07T20:47:58.454Z,98569.88
2022-08-07T20:50:30.400Z,98570.27
2022-08-07T20:52:59.865Z,98565.05
2022-08-07T20:55:32.300Z,98566.34
2022-08-07T20:58:12.123Z,98568.73
2022-08-07T21:01:03.839Z,98570.17
2022-08-07T21:03:35.866Z,98572.33
2022-08-07T21:06:22.282Z,98574.61
2022-08-07T21:09:00.720Z,98582.52
2022-08-07T21:11:46.029Z,98579.39
2022-08-07T21:14:33.080Z,98582.09
2022-08-07T21:18:06.173Z,98582.95
2022-08-07T21:20:05.232Z,98578.09
2022-08-07T21:22:39.391Z,98579.52
2022-08-07T21:25:20.751Z,98576.39
2022-08-07T21:28:04.157Z,98577.83
2022-08-07T21:30:43.200Z,98576.96
2022-08-07T21:33:22.076Z,98578.55
2022-08-07T21:36:06.333Z,98582.04
2022-08-07T21:38:50.108Z,98581.73
2022-08-07T21:41:24.620Z,98585.86
2022-08-07T21:44:05.706Z,98585.68
2022-08-07T21:46:40.853Z,98583.46
2022-08-07T21:49:14.776Z,98579.04
2022-08-07T21:52:01.995Z,98578.27
2022-08-07T21:54:46.194Z,98581.34
2022-08-07T21:57:39.636Z,98578.23
2022-08-07T22:00:23.057Z,98574.56
2022-08-07T22:03:05.552Z,98573.38
2022-08-07T22:05:50.268Z,98577.16
2022-08-07T22:08:33.270Z,98575.52
2022-08-07T22:11:05.586Z,98579.98
2022-08-07T22:13:52.074Z,98582.02
2022-08-07T22:16:40.038Z,98580.25
2022-08-07T22:19:23.628Z,98589.13
2022-08-07T22:22:21.592Z,98587.50
2022-08-07T22:25:05.241Z,98588.36
2022-08-07T22:28:06.382Z,98589.22
2022-08-07T22:30:36.222Z,98591.53
2022-08-07T22:33:09.715Z,98593.27
2022-08-07T22:35:43.506Z,98588.38
2022-08-07T22:38:25.668Z,98591.33
2022-08-07T22:40:59.911Z,98586.08
2022-08-07T22:43:36.306Z,98583.64
2022-08-07T22:47:02.441Z,98581.59
2022-08-07T22:49:54.148Z,98580.48
2022-08-07T22:52:43.401Z,98578.10
2022-08-07T22:55:30.888Z,98573.53
2022-08-07T22:58:27.871Z,98571.61
2022-08-07T23:01:15.380Z,98568.26
2022-08-07T23:04:00.199Z,98567.02
2022-08-07T23:06:51.488Z,98570.90
2022-08-07T23:10:05.526Z,98571.02
2022-08-07T23:12:34.400Z,98576.44
2022-08-07T23:15:12.359Z,98571.90
2022-08-07T23:18:13.207Z,98575.05
2022-08-07T23:21:02.896Z,98574.50
2022-08-07T23:24:06.120Z,98571.79
2022-08-07T23:26:54.995Z,98567.13
2022-08-07T23:30:38.283Z,98562.52
2022-08-07T23:34:34.420Z,98561.27
2022-08-07T23:35:52.927Z,98556.34
2022-08-07T23:38:36.526Z,98554.64
2022-08-07T23:41:24.475Z,98551.42
2022-08-07T23:44:31.668Z,98557.17
2022-08-07T23:47:17.429Z,98555.64
2022-08-07T23:50:23.576Z,98552.99
2022-08-07T23:53:06.462Z,98552.64
2022-08-07T23:55:47.139Z,98549.83
2022-08-07T23:58:29.576Z,98551.94
